createdAt,value
2023-02-15T00:02:28.986Z,15.77
2023-02-15T00:06:42.867Z,15.52
2023-02-15T00:11:43.763Z,16.98
2023-02-15T00:15:56.060Z,27.23
2023-02-15T00:20:09.536Z,19.17
2023-02-15T00:24:23.533Z,22.08
2023-02-15T00:28:40.398Z,27.65
2023-02-15T00:32:53.876Z,26.45
2023-02-15T00:37:06.157Z,17.92
2023-02-15T00:41:18.459Z,23.90
2023-02-15T00:45:30.801Z,17.17
2023-02-15T00:49:43.229Z,24.15
2023-02-15T00:53:55.972Z,23.20
2023-02-15T00:58:09.741Z,14.70
2023-02-15T01:02:22.202Z,18.35
2023-02-15T01:06:34.609Z,14.65
2023-02-15T01:10:48.411Z,17.27
2023-02-15T01:15:00.843Z,38.53
2023-02-15T01:19:14.389Z,39.13
2023-02-15T01:23:26.736Z,34.33
2023-02-15T01:27:39.169Z,31.05
2023-02-15T01:31:52.139Z,25.42
2023-02-15T01:36:05.320Z,9.88
2023-02-15T01:40:19.469Z,12.32
2023-02-15T01:44:59.045Z,13.07
2023-02-15T01:49:16.543Z,18.92
2023-02-15T01:53:42.636Z,13.60
2023-02-15T01:57:55.303Z,10.27
2023-02-15T02:02:11.019Z,26.55
2023-02-15T02:06:26.246Z,28.45
2023-02-15T02:10:38.731Z,31.70
2023-02-15T02:14:52.778Z,12.80
2023-02-15T02:19:20.395Z,28.67
2023-02-15T02:23:47.175Z,29.70
2023-02-15T02:28:24.068Z,25.63
2023-02-15T02:33:04.631Z,25.38
2023-02-15T02:37:32.634Z,27.45
2023-02-15T02:42:10.798Z,33.92
2023-02-15T02:46:32.796Z,18.08
2023-02-15T02:50:46.307Z,12.35
2023-02-15T02:54:59.107Z,28.20
2023-02-15T02:59:19.179Z,18.17
2023-02-15T03:07:51.383Z,16.60
2023-02-15T03:12:04.956Z,16.27
2023-02-15T03:16:28.408Z,18.10
2023-02-15T03:20:41.188Z,14.68
2023-02-15T03:25:16.735Z,34.40
2023-02-15T03:29:30.045Z,22.25
2023-02-15T03:33:51.327Z,26.30
2023-02-15T03:38:07.860Z,21.30
2023-02-15T03:42:26.275Z,38.63
2023-02-15T03:46:53.680Z,18.50
2023-02-15T03:51:29.179Z,15.70
2023-02-15T03:55:41.641Z,25.67
2023-02-15T04:00:12.131Z,12.68
2023-02-15T04:04:39.180Z,18.45
2023-02-15T04:09:09.678Z,25.58
2023-02-15T04:13:31.534Z,14.35
2023-02-15T04:17:43.918Z,11.18
2023-02-15T04:22:14.832Z,8.23
2023-02-15T04:26:27.194Z,23.98
2023-02-15T04:30:39.578Z,14.23
2023-02-15T04:34:51.908Z,13.85
2023-02-15T04:39:04.434Z,11.82
2023-02-15T04:43:16.786Z,11.68
2023-02-15T04:47:29.094Z,12.52
2023-02-15T04:51:41.582Z,13.70
2023-02-15T04:55:56.554Z,11.57
2023-02-15T05:00:11.544Z,16.23
2023-02-15T05:04:24.854Z,11.73
2023-02-15T05:08:37.971Z,15.27
2023-02-15T05:12:50.642Z,16.92
2023-02-15T05:17:06.470Z,11.65
2023-02-15T05:21:18.833Z,21.92
2023-02-15T05:25:49.518Z,13.23
2023-02-15T05:34:17.078Z,14.20
2023-02-15T05:38:32.148Z,14.07
2023-02-15T05:42:44.545Z,12.07
2023-02-15T05:46:56.871Z,34.80
2023-02-15T05:51:14.522Z,14.30
2023-02-15T05:55:26.892Z,38.05
2023-02-15T05:59:39.178Z,11.60
2023-02-15T06:03:52.191Z,10.10
2023-02-15T06:08:06.556Z,14.93
2023-02-15T06:12:18.994Z,6.95
2023-02-15T06:16:32.486Z,9.73
2023-02-15T06:20:48.428Z,14.10
2023-02-15T06:25:00.732Z,15.93
2023-02-15T06:29:14.574Z,23.10
2023-02-15T06:33:27.028Z,11.07
2023-02-15T06:37:39.687Z,23.83
2023-02-15T06:41:53.016Z,21.70
2023-02-15T06:46:05.744Z,18.65
2023-02-15T06:50:19.915Z,17.45
2023-02-15T06:54:32.494Z,54.35
2023-02-15T06:58:48.438Z,69.25
2023-02-15T07:03:01.334Z,73.32
2023-02-15T07:07:13.961Z,40.53
2023-02-15T07:11:45.107Z,25.98
2023-02-15T07:15:57.485Z,86.70
2023-02-15T07:20:17.760Z,84.25
2023-02-15T07:24:30.420Z,61.60
2023-02-15T07:28:45.591Z,68.65
2023-02-15T07:33:18.411Z,70.82
2023-02-15T07:37:31.001Z,63.97
2023-02-15T07:41:44.577Z,54.20
2023-02-15T07:46:08.748Z,63.75
2023-02-15T07:50:21.086Z,69.28
2023-02-15T07:54:33.393Z,69.10
2023-02-15T07:58:57.212Z,85.50
2023-02-15T08:03:16.896Z,83.50
2023-02-15T08:07:32.161Z,69.05
2023-02-15T08:11:50.677Z,80.65
2023-02-15T08:16:06.032Z,71.03
2023-02-15T08:20:18.861Z,77.47
2023-02-15T08:24:34.059Z,92.57
2023-02-15T08:28:47.620Z,69.15
2023-02-15T08:33:01.263Z,71.80
2023-02-15T08:37:13.538Z,66.05
2023-02-15T08:41:32.024Z,84.28
2023-02-15T08:45:44.439Z,82.40
2023-02-15T08:49:57.227Z,72.07
2023-02-15T08:54:13.377Z,74.72
2023-02-15T08:58:26.083Z,69.38
2023-02-15T09:02:38.650Z,51.03
2023-02-15T09:06:51.724Z,56.45
2023-02-15T09:11:23.963Z,70.97
2023-02-15T09:15:36.370Z,62.42
2023-02-15T09:19:48.724Z,43.92
2023-02-15T09:24:03.836Z,36.55
2023-02-15T09:28:16.270Z,41.60
2023-02-15T09:32:28.717Z,31.08
2023-02-15T09:36:42.152Z,45.63
2023-02-15T09:41:23.869Z,32.58
2023-02-15T09:46:40.603Z,27.90
2023-02-15T09:51:20.906Z,30.38
2023-02-15T09:55:48.464Z,27.77
2023-02-15T10:00:12.792Z,22.10
2023-02-15T10:04:53.323Z,27.17
2023-02-15T10:09:16.035Z,39.58
2023-02-15T10:14:04.273Z,31.95
2023-02-15T10:18:30.432Z,21.80
2023-02-15T10:23:01.411Z,25.05
2023-02-15T10:27:20.097Z,25.08
2023-02-15T10:32:08.353Z,26.10
2023-02-15T10:36:42.370Z,20.58
2023-02-15T10:40:54.635Z,17.55
2023-02-15T10:45:41.508Z,21.98
2023-02-15T10:50:15.759Z,20.23
2023-02-15T10:54:39.878Z,21.05
2023-02-15T10:59:23.650Z,17.20
2023-02-15T11:03:57.759Z,18.60
2023-02-15T11:08:12.745Z,24.13
2023-02-15T11:12:28.907Z,24.67
2023-02-15T11:16:47.125Z,20.33
2023-02-15T11:21:05.382Z,20.65
2023-02-15T11:25:22.105Z,27.77
2023-02-15T11:29:47.622Z,24.15
2023-02-15T11:34:05.649Z,21.65
2023-02-15T11:38:28.477Z,19.10
2023-02-15T11:42:42.094Z,23.17
2023-02-15T11:46:55.365Z,17.20
2023-02-15T11:51:15.350Z,18.75
2023-02-15T11:55:30.450Z,15.52
2023-02-15T11:59:50.696Z,20.25
2023-02-15T12:04:03.252Z,16.17
2023-02-15T12:08:22.283Z,22.20
2023-02-15T12:12:36.627Z,19.30
2023-02-15T12:16:52.721Z,30.10
2023-02-15T12:21:11.623Z,20.15
2023-02-15T12:25:30.682Z,20.17
2023-02-15T12:29:47.415Z,22.13
2023-02-15T12:34:04.778Z,30.58
2023-02-15T12:38:17.113Z,22.55
2023-02-15T12:42:43.512Z,21.95
2023-02-15T12:47:06.213Z,21.55
2023-02-15T12:51:18.730Z,20.60
2023-02-15T12:55:31.994Z,22.35
2023-02-15T12:59:52.720Z,22.60
2023-02-15T13:04:07.686Z,19.10
2023-02-15T13:08:32.946Z,22.35
2023-02-15T13:12:48.913Z,21.30
2023-02-15T13:17:07.744Z,25.65
2023-02-15T13:25:45.985Z,18.88
2023-02-15T13:30:04.089Z,23.98
2023-02-15T13:34:22.292Z,20.30
2023-02-15T13:38:55.830Z,24.10
2023-02-15T13:43:20.294Z,30.33
2023-02-15T13:47:36.204Z,22.73
2023-02-15T13:52:13.938Z,24.60
2023-02-15T13:56:38.288Z,20.42
2023-02-15T14:01:12.284Z,17.33
2023-02-15T14:05:55.622Z,17.60
2023-02-15T14:10:15.057Z,20.23
2023-02-15T14:15:04.495Z,21.98
2023-02-15T14:19:40.784Z,24.88
2023-02-15T14:24:17.031Z,23.35
2023-02-15T14:28:39.326Z,21.77
2023-02-15T14:33:01.128Z,17.40
2023-02-15T14:37:18.383Z,21.60
2023-02-15T14:41:54.759Z,20.45
2023-02-15T14:46:27.985Z,25.30
2023-02-15T14:50:46.201Z,13.70
2023-02-15T14:54:59.720Z,15.27
2023-02-15T14:59:18.850Z,18.00
2023-02-15T15:03:31.449Z,15.07
2023-02-15T15:07:57.363Z,13.50
2023-02-15T15:12:36.352Z,21.05
2023-02-15T15:16:51.966Z,17.75
2023-02-15T15:21:05.950Z,20.58
2023-02-15T15:25:39.955Z,20.52
2023-02-15T15:29:52.577Z,22.33
2023-02-15T15:34:32.286Z,19.02
2023-02-15T15:39:26.356Z,18.88
2023-02-15T15:44:00.245Z,23.60
2023-02-15T15:48:29.601Z,23.40
2023-02-15T15:52:48.980Z,22.17
2023-02-15T15:57:04.615Z,25.83
2023-02-15T16:01:19.665Z,26.10
2023-02-15T16:05:41.553Z,20.85
2023-02-15T16:10:10.936Z,25.08
2023-02-15T16:18:45.599Z,28.83
2023-02-15T16:23:36.396Z,37.10
2023-02-15T16:27:50.097Z,31.80
2023-02-15T16:32:08.011Z,39.20
2023-02-15T16:36:23.411Z,38.33
2023-02-15T16:40:57.228Z,39.38
2023-02-15T16:45:16.717Z,42.80
2023-02-15T16:49:31.393Z,40.25
2023-02-15T16:53:49.109Z,40.20
2023-02-15T16:58:05.550Z,46.10
2023-02-15T17:02:43.036Z,54.55
2023-02-15T17:07:06.605Z,43.95
2023-02-15T17:11:24.160Z,41.75
2023-02-15T17:15:45.800Z,54.13
2023-02-15T17:19:58.469Z,74.70
2023-02-15T17:24:19.458Z,87.10
2023-02-15T17:28:34.200Z,63.88
2023-02-15T17:32:56.842Z,89.82
2023-02-15T17:37:38.124Z,106.68
2023-02-15T17:41:54.071Z,82.32
2023-02-15T17:46:06.829Z,92.82
2023-02-15T17:50:26.157Z,92.32
2023-02-15T17:55:00.100Z,86.03
2023-02-15T17:59:15.894Z,81.25
2023-02-15T18:03:58.305Z,79.95
2023-02-15T18:08:35.226Z,56.78
2023-02-15T18:12:48.887Z,76.68
2023-02-15T18:17:03.505Z,55.70
2023-02-15T18:21:16.938Z,56.67
2023-02-15T18:25:29.662Z,57.30
2023-02-15T18:29:42.519Z,52.75
2023-02-15T18:33:59.536Z,51.72
2023-02-15T18:38:13.080Z,54.05
2023-02-15T18:42:28.596Z,53.05
2023-02-15T18:46:43.317Z,54.28
2023-02-15T18:50:55.729Z,66.07
2023-02-15T18:55:25.088Z,48.55
2023-02-15T18:59:38.409Z,43.50
2023-02-15T19:03:53.486Z,39.83
2023-02-15T19:08:07.259Z,39.38
2023-02-15T19:12:19.921Z,41.22
2023-02-15T19:16:35.573Z,52.22
2023-02-15T19:20:49.395Z,41.22
2023-02-15T19:25:08.362Z,44.67
2023-02-15T19:29:26.550Z,42.13
2023-02-15T19:33:39.409Z,39.85
2023-02-15T19:38:01.079Z,39.15
2023-02-15T19:42:24.887Z,73.03
2023-02-15T19:46:38.762Z,48.45
2023-02-15T19:50:52.949Z,47.35
2023-02-15T19:55:05.842Z,48.42
2023-02-15T19:59:34.359Z,57.28
2023-02-15T20:03:46.736Z,44.88
2023-02-15T20:08:02.098Z,45.00
2023-02-15T20:12:24.567Z,55.63
2023-02-15T20:16:37.106Z,54.97
2023-02-15T20:20:52.940Z,43.55
2023-02-15T20:25:05.651Z,32.88
2023-02-15T20:29:19.469Z,36.58
2023-02-15T20:33:31.813Z,33.55
2023-02-15T20:37:46.958Z,33.75
2023-02-15T20:41:59.326Z,31.10
2023-02-15T20:46:11.799Z,39.35
2023-02-15T20:50:33.426Z,31.23
2023-02-15T20:54:46.889Z,35.88
2023-02-15T20:58:59.191Z,30.58
2023-02-15T21:03:18.160Z,33.88
2023-02-15T21:07:32.961Z,38.95
2023-02-15T21:11:45.811Z,37.20
2023-02-15T21:15:58.934Z,38.53
2023-02-15T21:20:14.876Z,31.60
2023-02-15T21:24:29.630Z,35.05
2023-02-15T21:28:42.305Z,29.63
2023-02-15T21:32:55.125Z,34.65
2023-02-15T21:37:32.653Z,44.78
2023-02-15T21:42:06.083Z,43.88
2023-02-15T21:46:38.811Z,43.13
2023-02-15T21:51:10.776Z,49.05
2023-02-15T21:55:23.571Z,26.13
2023-02-15T21:59:35.931Z,41.28
2023-02-15T22:03:48.883Z,38.45
2023-02-15T22:08:01.297Z,35.00
2023-02-15T22:12:22.292Z,40.15
2023-02-15T22:16:34.732Z,48.88
2023-02-15T22:20:50.579Z,37.97
2023-02-15T22:25:05.156Z,39.88
2023-02-15T22:29:18.509Z,41.15
2023-02-15T22:33:33.682Z,41.80
2023-02-15T22:37:45.992Z,51.13
2023-02-15T22:41:58.509Z,57.90
2023-02-15T22:46:18.259Z,52.88
2023-02-15T22:50:34.277Z,40.90
2023-02-15T22:54:47.137Z,43.15
2023-02-15T22:59:02.973Z,22.10
2023-02-15T23:03:21.572Z,38.47
2023-02-15T23:07:34.181Z,42.17
2023-02-15T23:11:48.817Z,31.13
2023-02-15T23:16:03.513Z,35.25
2023-02-15T23:20:16.322Z,31.30
2023-02-15T23:24:30.801Z,38.65
2023-02-15T23:28:43.514Z,35.72
2023-02-15T23:32:58.153Z,31.13
2023-02-15T23:37:14.776Z,27.17
2023-02-15T23:41:30.443Z,29.83
2023-02-15T23:45:42.822Z,35.15
2023-02-15T23:49:55.187Z,31.33
2023-02-15T23:54:07.673Z,36.95
2023-02-15T23:58:26.321Z,35.08
